Terminal Aerodrome Forecast
Issued by NWS

Home | Current Version | Previous Version | Text Only | Print | Product List | Glossary On
Versions: 1 2 3 4 5 6 7 8 9 10 11 12 13 14 15 16 17 18 19 20 21 22 23 24 25 26 27 28
000
FTUS44 KOUN 312329
TAFLAW
TAF
KLAW 312329Z 0100/0124 15008KT 3SM -RA BR OVC008
     FM010800 23006KT 3SM BR OVC005
     FM011200 32011KT 5SM BR OVC008
     FM011400 34017G24KT P6SM BKN015
     FM011700 35023G31KT P6SM BKN025
     FM012000 35021G30KT P6SM SCT030=

USA.gov is the U.S. government's official web portal to all federal, state and local government web resources and services.